Flight Track Log - Related Links

Times and Time Zones

All times are in EDT time to prevent confusion due to time zone crossing. See the VH-HWU flight status page for this flight to view local times or setup timezone preferences in your user account.

Time Position Orientation Groundspeed Altitude Reporting Facility
EDT Latitude Longitude Course Direction KTS MPH feet Rate Location/Type
Fri 09:12:58 PM -33.9146 150.9741 306° West 92 106 500  Level Aus ATC (RADAR)
Fri 09:13:33 PM -33.9050 150.9579 306° West 96 110 1,200 1,063 Climbing Aus ATC (RADAR)
Fri 09:14:17 PM -33.8926 150.9359 304° West 99 114 1,900 987 Climbing Aus ATC (RADAR)
Fri 09:14:52 PM -33.8832 150.9177 302° West 101 116 2,500 600 Climbing Aus ATC (RADAR)
Fri 09:16:17 PM -33.8459 150.8842 323° Northwest 136 157 3,100 267 Climbing Aus ATC (RADAR)
Fri 09:17:07 PM -33.8143 150.8736 344° North 140 161 3,100 -63 Level Aus ATC (RADAR)
Fri 09:17:52 PM -33.7843 150.8710 356° North 150 173 3,000 -57 Descending Aus ATC (RADAR)
Fri 09:18:52 PM -33.7440 150.8758 North 143 165 3,000 -60 Level Aus ATC (RADAR)
Fri 09:19:32 PM -33.7190 150.8799 North 138 159 2,900 -71 Descending Aus ATC (RADAR)
Fri 09:20:17 PM -33.6956 150.8944 27° Northeast 134 154 2,900 66 Level Aus ATC (RADAR)
Fri 09:21:03 PM -33.6987 150.9284 96° East 137 158 3,000 63 Climbing Aus ATC (RADAR)
Fri 09:21:52 PM -33.7037 150.9654 99° East 134 154 3,000  Level Aus ATC (RADAR)
Fri 09:22:42 PM -33.6946 150.9986 72° East 144 166 3,000 -71 Level Aus ATC (RADAR)
Fri 09:23:17 PM -33.6764 150.9953 352° North 122 140 2,900 -80 Descending Aus ATC (RADAR)
Fri 09:23:57 PM -33.6596 150.9804 324° Northwest 112 129 2,900 -240 Level Aus ATC (RADAR)
Fri 09:24:57 PM -33.6468 150.9458 294° West 112 129 2,500 -457 Descending Aus ATC (RADAR)
Fri 09:25:42 PM -33.6408 150.9202 286° West 101 116 2,100 -462 Descending Aus ATC (RADAR)
Fri 09:26:41 PM -33.6329 150.8915 288° West 87 100 1,700 -462 Descending Aus ATC (RADAR)
Fri 09:27:26 PM -33.6273 150.8699 287° West 88 101 1,300 -444 Descending Aus ATC (RADAR)
Fri 09:28:02 PM -33.6234 150.8524 285° West 88 101 1,100 -429 Descending Aus ATC (RADAR)
Fri 09:28:36 PM -33.6182 150.8350 289° West 91 105 800 -563 Descending Aus ATC (RADAR)
Fri 09:29:06 PM -33.6143 150.8194 287° West 95 109 500 -554 Descending Aus ATC (RADAR)
Fri 09:29:41 PM -33.6103 150.8027 286° West 88 101 200 379 Descending Aus ATC (RADAR)
Fri 09:30:41 PM -33.5943 150.7802 310° West 97 112 1,100 982 Climbing Aus ATC (RADAR)
Fri 09:31:31 PM -33.5911 150.8095 83° East 116 133 2,000 988 Climbing Aus ATC (RADAR)
Fri 09:32:06 PM -33.5944 150.8324 100° East 120 138 2,500 825 Climbing Aus ATC (RADAR)
Fri 09:32:51 PM -33.5993 150.8626 101° East 123 142 3,100 800 Climbing Aus ATC (RADAR)
Fri 09:33:21 PM -33.6084 150.8796 122° Southeast 129 148 3,500 923 Climbing Aus ATC (RADAR)
Fri 09:33:56 PM -33.6227 150.8727 202° Southwest 97 112 4,100 1,029 Climbing Aus ATC (RADAR)
Fri 09:34:31 PM -33.6269 150.8558 253° West 85 98 4,700 771 Climbing Aus ATC (RADAR)
Fri 09:35:06 PM -33.6317 150.8371 253° West 94 108 5,000 67 Climbing Aus ATC (RADAR)
Fri 09:36:01 PM -33.6402 150.8066 251° West 101 116 4,800  Descending Aus ATC (RADAR)
Fri 09:37:00 PM -33.6647 150.7858 215° Southwest 137 158 5,000 173 Climbing Aus ATC (RADAR)
Fri 09:37:45 PM -33.6907 150.7783 194° South 127 146 5,100 -75 Climbing Aus ATC (RADAR)
Fri 09:38:20 PM -33.7110 150.7737 191° South 127 146 4,900 -86 Descending Aus ATC (RADAR)
Fri 09:38:55 PM -33.7310 150.7669 196° South 125 144 5,000 171 Climbing Aus ATC (RADAR)
Fri 09:39:30 PM -33.7500 150.7587 200° South 123 142 5,100  Climbing Aus ATC (RADAR)
Fri 09:40:05 PM -33.7715 150.7567 185° South 133 153 5,000 -67 Descending Aus ATC (RADAR)
Fri 09:41:00 PM -33.8043 150.7480 192° South 129 148 5,000 -50 Level Aus ATC (RADAR)
Fri 09:42:05 PM -33.8451 150.7374 192° South 141 162 4,900 -114 Descending Aus ATC (RADAR)
Fri 09:42:45 PM -33.8708 150.7322 190° South 139 160 4,800  Descending Aus ATC (RADAR)
Fri 09:43:20 PM -33.8916 150.7279 190° South 129 148 4,900 174 Climbing Aus ATC (RADAR)
Fri 09:43:54 PM -33.9106 150.7259 185° South 117 135 5,000 87 Climbing Aus ATC (RADAR)
Fri 09:44:29 PM -33.9273 150.7211 193° South 108 124 5,000  Level Aus ATC (RADAR)
Fri 09:45:04 PM -33.9449 150.7158 194° South 113 130 5,000  Level Aus ATC (RADAR)
Fri 09:46:19 PM -33.9851 150.7019 196° South 123 142 5,000  Level Aus ATC (RADAR)
Fri 09:47:09 PM -34.0129 150.6977 187° South 122 140 5,000 -133 Level Aus ATC (RADAR)
Fri 09:47:49 PM -34.0342 150.6939 188° South 118 136 4,800  Descending Aus ATC (RADAR)
Fri 09:48:24 PM -34.0500 150.6836 209° Southwest 113 130 5,000 171 Climbing Aus ATC (RADAR)
Fri 09:48:59 PM -34.0622 150.6674 228° Southwest 112 129 5,000  Level Aus ATC (RADAR)
Fri 09:49:34 PM -34.0805 150.6669 181° South 135 155 5,000 -171 Level Aus ATC (RADAR)
Fri 09:50:09 PM -34.0786 150.6951 85° East 145 167 4,800 -270 Descending Aus ATC (RADAR)
Fri 09:51:03 PM -34.0500 150.6894 351° North 122 140 4,600 -263 Descending Aus ATC (RADAR)
Fri 09:52:03 PM -34.0367 150.6665 305° West 113 130 4,300 -382 Descending Aus ATC (RADAR)
Fri 09:52:53 PM -34.0578 150.6409 225° Southwest 126 145 3,900 -282 Descending Aus ATC (RADAR)
Fri 09:53:28 PM -34.0764 150.6349 195° South 139 160 3,900  Level Aus ATC (RADAR)
Fri 09:54:13 PM -34.0740 150.6698 85° East 146 168 3,900  Level Aus ATC (RADAR)
Fri 09:55:13 PM -34.0453 150.6885 28° Northeast 126 145 3,900  Level Aus ATC (RADAR)
Fri 09:56:08 PM -34.0165 150.6855 355° North 113 130 3,900 -209 Level Aus ATC (RADAR)
Fri 09:57:08 PM -33.9812 150.6846 359° North 126 145 3,500 -360 Descending Aus ATC (RADAR)
Fri 09:57:48 PM -33.9571 150.6823 355° North 127 146 3,300 -320 Descending Aus ATC (RADAR)
Fri 09:58:23 PM -33.9447 150.6697 320° Northwest 112 129 3,100 -435 Descending Aus ATC (RADAR)
Fri 09:58:57 PM -33.9632 150.6626 198° South 133 153 2,800 -656 Descending Aus ATC (RADAR)
Fri 09:59:27 PM -33.9814 150.6668 169° South 136 157 2,400 -738 Descending Aus ATC (RADAR)
Fri 10:00:02 PM -34.0015 150.6742 163° South 132 152 2,000 -488 Descending Aus ATC (RADAR)
Fri 10:00:53 PM -34.0262 150.6862 158° South 116 133 1,700 -140 Descending Aus ATC (RADAR)
Fri 10:01:28 PM -34.0401 150.6817 195° South 101 116 1,800 -261 Climbing Aus ATC (RADAR)
Fri 10:02:02 PM -34.0282 150.6682 317° Northwest 106 122 1,400 -563 Descending Aus ATC (RADAR)
Fri 10:02:32 PM -34.0174 150.6858 53° Northeast 128 147 1,200 -185 Descending Aus ATC (RADAR)
Fri 10:03:07 PM -34.0108 150.7094 71° East 127 146 1,200 -343 Level Aus ATC (RADAR)
Fri 10:03:42 PM -34.0240 150.7186 150° Southeast 93 107 800 -686 Descending Aus ATC (RADAR)
Fri 10:04:17 PM -34.0309 150.7056 237° Southwest 77 89 400 351 Descending Aus ATC (RADAR)
Fri 10:05:57 PM -34.0476 150.6673 242° Southwest 160 184 565 Descending Aus ATC (RADAR)
Fri 10:07:07 PM -34.0264 150.6427 316° Northwest 114 131 2,000 1,486 Climbing Aus ATC (RADAR)
Fri 10:07:42 PM -34.0094 150.6345 338° Northwest 110 127 2,600 943 Climbing Aus ATC (RADAR)
Fri 10:08:17 PM -33.9953 150.6228 325° Northwest 105 121 3,100 909 Climbing Aus ATC (RADAR)
Fri 10:09:21 PM -34.0090 150.5877 245° Southwest 103 119 4,100 1,030 Climbing Aus ATC (RADAR)
Fri 10:09:56 PM -34.0175 150.5719 237° Southwest 99 114 4,800 1,015 Climbing Aus ATC (RADAR)
Fri 10:10:26 PM -34.0214 150.5576 252° West 88 101 5,200 554 Climbing Aus ATC (RADAR)
Fri 10:11:01 PM -34.0267 150.5382 252° West 104 120 5,400 86 Climbing Aus ATC (RADAR)
Fri 10:11:36 PM -34.0232 150.5157 280° West 112 129 5,300 -86 Descending Aus ATC (RADAR)
Fri 10:12:11 PM -34.0206 150.4937 278° West 111 128 5,300 -75 Level Aus ATC (RADAR)
Fri 10:12:56 PM -34.0203 150.4667 271° West 104 120 5,200  Descending Aus ATC (RADAR)
Fri 10:13:56 PM -34.0351 150.4333 242° Southwest 111 128 5,300 57 Climbing Aus ATC (RADAR)
Fri 10:14:41 PM -34.0581 150.4268 193° South 115 132 5,300 -75 Level Aus ATC (RADAR)
Fri 10:15:16 PM -34.0752 150.4356 157° South 114 131 5,200 -343 Descending Aus ATC (RADAR)
Fri 10:16:26 PM -34.1046 150.4655 140° Southeast 119 137 4,700 -540 Descending Aus ATC (RADAR)
Fri 10:16:56 PM -34.1153 150.4806 131° Southeast 119 137 4,300 -667 Descending Aus ATC (RADAR)
Fri 10:17:56 PM -34.1330 150.5160 121° Southeast 122 140 3,700 -629 Descending Aus ATC (RADAR)
Fri 10:18:41 PM -34.1220 150.5418 63° Northeast 118 136 3,200 -525 Descending Aus ATC (RADAR)
Fri 10:19:16 PM -34.1088 150.5549 40° Northeast 106 122 3,000 -600 Descending Aus ATC (RADAR)
Fri 10:19:51 PM -34.0945 150.5695 40° Northeast 111 128 2,500 -857 Descending Aus ATC (RADAR)
Fri 10:21:00 PM -34.0896 150.5820 65° Northeast  Level FlightAware Approximate
Fri 10:28:00 PM -34.0576 150.6641 65° Northeast  Level FlightAware Approximate
Fri 10:29:00 PM -34.0531 150.6758 65° Northeast  Level FlightAware Approximate
Fri 10:30:00 PM -34.0485 150.6875 65° Northeast  Level FlightAware Approximate
Fri 10:31:00 PM -34.0439 150.6992 65° Northeast  Level FlightAware Approximate
Fri 10:32:00 PM -34.0393 150.7109 65° Northeast  Level FlightAware Approximate
Fri 10:33:00 PM -34.0347 150.7227 65° Northeast  Level FlightAware Approximate
Fri 10:34:00 PM -34.0302 150.7344 65° Northeast  Level FlightAware Approximate
Fri 10:35:00 PM -34.0256 150.7461 65° Northeast  Level FlightAware Approximate
Fri 10:36:00 PM -34.0210 150.7578 65° Northeast  Level FlightAware Approximate
Fri 10:37:00 PM -34.0164 150.7695 65° Northeast  Level FlightAware Approximate
Fri 10:38:00 PM -34.0118 150.7812 65° Northeast  Level FlightAware Approximate
Fri 10:39:00 PM -34.0072 150.7929 65° Northeast  Level FlightAware Approximate
Fri 10:40:00 PM -34.0026 150.8046 65° Northeast  Level FlightAware Approximate
Fri 10:41:00 PM -33.9980 150.8163 65° Northeast  Level FlightAware Approximate
Fri 10:42:00 PM -33.9934 150.8280 65° Northeast  Level FlightAware Approximate
Fri 10:43:00 PM -33.9888 150.8397 65° Northeast  Level FlightAware Approximate
Fri 10:44:00 PM -33.9843 150.8514 65° Northeast  Level FlightAware Approximate
Fri 10:45:00 PM -33.9797 150.8631 65° Northeast  Level FlightAware Approximate
Fri 10:46:00 PM -33.9746 150.8746 North  Level Estimated
Fri 10:47:00 PM -33.9696 150.8860 North  Level Estimated
Fri 10:48:00 PM -33.9646 150.8974 North  Level Estimated
Fri 10:49:00 PM -33.9595 150.9089 North  Level Estimated
Fri 10:50:00 PM -33.9545 150.9203 North  Level Estimated
Fri 10:51:00 PM -33.9494 150.9317 North  Level Estimated
Fri 10:52:00 PM -33.9444 150.9431 North  Level Estimated
Fri 10:53:00 PM -33.9394 150.9546 North  Level Estimated
Fri 10:54:00 PM -33.9343 150.9660 North  Level Estimated
Fri 10:55:00 PM -33.9293 150.9774 North  Level Estimated
Fri 10:56:00 PM -33.9244 150.9884 North  Level FlightAware Approximate
Fri 10:57:00 PM -33.9244 150.9883 North  Level Estimated
Fri 10:58:00 PM -33.9244 150.9883 North  Level Estimated
Fri 10:59:00 PM -33.9244 150.9883 North  Level Estimated
Fri 11:00:00 PM -33.9244 150.9883 North  Level Estimated
Fri 11:01:00 PM -33.9244 150.9883 North  Level Estimated
Fri 11:02:00 PM -33.9244 150.9883 North  Level Estimated
Fri 11:03:00 PM -33.9244 150.9883 North  Level Estimated
Fri 11:04:00 PM -33.9244 150.9883 North  Level Estimated
Fri 11:05:00 PM -33.9244 150.9883 North  Level Estimated
Fri 11:06:00 PM -33.9244 150.9883 North  Level Estimated
Fri 11:07:00 PM -33.9244 150.9883 North  Level Estimated
Fri 11:08:00 PM -33.9244 150.9883 North  Level Estimated
Fri 11:09:00 PM -33.9244 150.9883 North  Level Estimated

Login

Don't have an account? Register now (free) for customized features, flight alerts, and more!